Time;durP1;ratioP1;P1;durP2;ratioP2;P2;SDS_P1;SDS_P2;PMS_P1;PMS_P2;Temp;Humidity;BMP_temperature;BMP_pressure;BME280_temperature;BME280_humidity;BME280_pressure;Samples;Min_cycle;Max_cycle;Signal;HPM_P1;HPM_P2
2022/12/04 00:01:36;;;;;;;6.20;4.32;;;;;;;21.87;42.25;95788.16;5050530;28;20582;-66
2022/12/04 00:04:02;;;;;;;6.80;5.20;;;;;;;21.87;42.34;95788.91;5050332;28;20036;-66
2022/12/04 00:06:27;;;;;;;5.65;4.53;;;;;;;21.87;42.54;95793.59;5046758;28;20428;-66
2022/12/04 00:08:53;;;;;;;5.90;4.43;;;;;;;21.88;42.24;95795.09;5046676;28;20647;-66
2022/12/04 00:11:21;;;;;;;6.10;4.60;;;;;;;21.61;42.26;95749.34;5048315;28;20520;-66
2022/12/04 00:13:46;;;;;;;5.70;4.60;;;;;;;21.85;42.52;95802.22;5030335;28;20123;-66
2022/12/04 00:16:13;;;;;;;6.03;4.60;;;;;;;21.84;42.46;95805.41;5032011;28;20044;-66
2022/12/04 00:18:39;;;;;;;6.45;5.07;;;;;;;21.80;42.43;95804.91;5018150;28;20355;-67
2022/12/04 00:21:06;;;;;;;5.47;4.20;;;;;;;21.81;42.49;95809.09;5047009;28;20040;-67
2022/12/04 00:23:32;;;;;;;5.90;4.45;;;;;;;21.81;42.53;95811.81;5014769;28;20063;-66
2022/12/04 00:26:12;;;;;;;5.38;4.68;;;;;;;21.80;42.46;95815.78;5014391;28;20033;-66
2022/12/04 00:28:38;;;;;;;6.20;4.88;;;;;;;21.78;42.43;95812.78;5032794;28;20040;-66
2022/12/04 00:31:07;;;;;;;5.55;4.32;;;;;;;21.77;42.31;95805.88;5046167;28;20037;-67
2022/12/04 00:33:32;;;;;;;6.17;4.70;;;;;;;21.61;42.44;95787.41;5032737;28;20533;-66
2022/12/04 00:35:59;;;;;;;7.25;4.80;;;;;;;21.74;42.43;95806.81;5030100;28;20107;-67
2022/12/04 00:38:24;;;;;;;5.50;4.57;;;;;;;21.68;42.50;95792.44;5031707;28;20500;-66
2022/12/04 00:40:50;;;;;;;5.18;4.32;;;;;;;21.74;42.48;95809.53;5050820;28;20045;-66
2022/12/04 00:43:15;;;;;;;5.72;4.43;;;;;;;20.76;42.40;95664.44;5031544;28;20048;-65
2022/12/04 00:45:41;;;;;;;6.80;4.68;;;;;;;21.72;42.51;95801.09;5049602;28;20036;-66
2022/12/04 00:48:06;;;;;;;5.10;4.20;;;;;;;21.72;42.49;95803.81;5031372;28;20048;-67
2022/12/04 00:50:32;;;;;;;6.15;4.70;;;;;;;21.68;42.58;95804.03;5049432;28;20041;-66
2022/12/04 00:52:57;;;;;;;5.47;4.55;;;;;;;21.71;42.35;95815.94;5022403;28;20041;-66
2022/12/04 00:55:23;;;;;;;5.47;4.40;;;;;;;21.48;42.48;95784.31;5046075;28;20095;-66
2022/12/04 00:57:48;;;;;;;6.10;4.43;;;;;;;21.69;42.76;95810.25;5046830;28;20032;-66
2022/12/04 01:00:14;;;;;;;6.05;4.60;;;;;;;20.71;42.42;95667.84;5049391;28;20033;-67
2022/12/04 01:02:39;;;;;;;5.60;4.47;;;;;;;21.49;42.63;95791.22;5049582;28;20048;-67
2022/12/04 01:05:05;;;;;;;5.13;4.20;;;;;;;20.88;42.58;95698.66;5049286;28;20424;-67
2022/12/04 01:07:30;;;;;;;6.22;4.93;;;;;;;21.63;42.60;95812.16;5031382;28;20478;-66
2022/12/04 01:09:56;;;;;;;6.03;4.43;;;;;;;21.65;42.62;95809.69;5028554;28;20108;-67
2022/12/04 01:12:21;;;;;;;4.93;4.13;;;;;;;21.49;42.52;95802.09;5048044;28;20071;-66
2022/12/04 01:14:47;;;;;;;5.35;4.20;;;;;;;21.49;42.55;95792.00;5024169;28;20045;-66
2022/12/04 01:17:12;;;;;;;6.15;4.30;;;;;;;20.99;42.50;95715.81;5025810;28;20076;-66
2022/12/04 01:19:38;;;;;;;5.90;3.92;;;;;;;21.64;42.48;95824.50;5030235;28;20516;-66
2022/12/04 01:22:03;;;;;;;5.80;4.63;;;;;;;21.65;42.44;95804.25;5046973;28;20040;-66
2022/12/04 01:24:29;;;;;;;5.35;4.10;;;;;;;21.61;42.69;95798.28;5025766;28;20428;-67
2022/12/04 01:26:54;;;;;;;5.03;4.03;;;;;;;21.61;42.51;95798.28;5029963;28;20041;-66
2022/12/04 01:29:20;;;;;;;5.78;4.30;;;;;;;21.17;42.51;95738.00;5047168;28;20045;-67
2022/12/04 01:31:45;;;;;;;5.78;4.32;;;;;;;21.60;42.55;95802.22;5048271;28;20497;-66
2022/12/04 01:34:11;;;;;;;5.63;4.13;;;;;;;21.61;42.59;95798.28;5048425;28;20044;-66
2022/12/04 01:36:36;;;;;;;6.68;4.78;;;;;;;21.59;42.64;95798.00;5014760;28;20025;-67
2022/12/04 01:39:01;;;;;;;6.65;4.78;;;;;;;21.57;42.62;95797.75;5029650;28;20049;-66
2022/12/04 01:41:29;;;;;;;6.47;4.60;;;;;;;21.40;42.62;95772.31;5047969;28;20036;-66
2022/12/04 01:44:23;;;;;;;5.32;4.15;;;;;;;21.57;42.58;95805.91;5016545;28;20045;-66
2022/12/04 01:46:53;;;;;;;5.43;4.20;;;;;;;20.05;42.33;95585.63;5039320;28;20076;-67
2022/12/04 01:49:29;;;;;;;;;;;;;;;21.58;42.56;95799.22;5003565;28;20041;-67
2022/12/04 01:52:14;;;;;;;5.38;4.40;;;;;;;21.45;42.55;95785.25;5033700;28;20152;-67
2022/12/04 01:54:43;;;;;;;5.85;4.57;;;;;;;19.73;42.46;95520.09;5046330;28;20047;-66
2022/12/04 01:57:14;;;;;;;5.53;4.47;;;;;;;21.50;42.70;95790.75;5013801;28;20036;-66
2022/12/04 02:00:19;;;;;;;5.55;4.43;;;;;;;21.52;42.62;95790.28;5008943;28;20050;-66
2022/12/04 02:02:45;;;;;;;5.25;4.55;;;;;;;21.51;42.38;95800.41;5023242;28;20040;-67
2022/12/04 02:05:13;;;;;;;4.72;4.20;;;;;;;21.52;42.68;95790.28;5030293;28;20040;-67
2022/12/04 02:07:39;;;;;;;4.90;3.88;;;;;;;21.53;42.77;95789.78;5030264;28;20033;-66
2022/12/04 02:10:07;;;;;;;5.80;4.70;;;;;;;21.51;42.66;95781.38;5011415;28;20439;-66
2022/12/04 02:12:45;;;;;;;5.70;4.55;;;;;;;20.60;42.55;95652.16;5012052;28;20060;-66
2022/12/04 02:15:19;;;;;;;5.60;4.25;;;;;;;21.51;42.53;95800.41;5040558;28;20076;-66
2022/12/04 02:17:48;;;;;;;5.32;4.43;;;;;;;21.48;42.74;95773.44;5047366;28;20037;-66
2022/12/04 02:20:32;;;;;;;5.55;4.30;;;;;;;21.49;42.70;95812.97;5028635;28;20091;-67
2022/12/04 02:23:10;;;;;;;5.40;4.25;;;;;;;21.48;42.64;95784.31;5036243;28;20063;-67
2022/12/04 02:25:39;;;;;;;5.57;4.15;;;;;;;21.49;42.63;95807.53;5027743;28;20048;-66
2022/12/04 02:28:18;;;;;;;5.18;4.18;;;;;;;20.68;42.52;95674.22;5006171;28;20053;-67
2022/12/04 02:30:44;;;;;;;5.25;4.07;;;;;;;21.48;42.63;95789.75;5027429;28;20115;-66
2022/12/04 02:33:11;;;;;;;5.55;4.15;;;;;;;21.39;42.32;95780.94;5011363;28;21133;-66
2022/12/04 02:35:48;;;;;;;5.45;4.38;;;;;;;21.45;42.60;95769.69;5027495;28;20068;-66
2022/12/04 02:38:31;;;;;;;5.53;4.43;;;;;;;21.24;42.69;95737.59;5013335;28;20049;-66
2022/12/04 02:41:16;;;;;;;5.28;4.30;;;;;;;21.45;42.52;95777.09;5009185;28;20578;-67
2022/12/04 02:43:47;;;;;;;5.47;4.20;;;;;;;20.50;42.48;95625.63;5027980;28;20065;-67
2022/12/04 02:46:17;;;;;;;4.47;3.83;;;;;;;21.45;42.57;95780.56;5011326;28;20033;-67
2022/12/04 02:48:43;;;;;;;;;;;;;;;21.44;42.65;95772.88;5029653;28;20024;-67
2022/12/04 02:51:10;;;;;;;5.00;4.05;;;;;;;21.43;42.62;95771.38;5013284;28;19957;-67
2022/12/04 02:53:43;;;;;;;5.40;3.85;;;;;;;21.32;42.72;95760.38;5013016;28;20029;-67
2022/12/04 02:56:11;;;;;;;4.53;3.90;;;;;;;21.30;42.60;95751.97;5013284;28;20041;-67
2022/12/04 02:58:41;;;;;;;5.20;3.83;;;;;;;19.68;42.32;95501.81;5012173;28;20128;-67
2022/12/04 03:01:18;;;;;;;4.90;3.92;;;;;;;21.40;42.56;95794.06;5028858;28;20075;-68
2022/12/04 03:03:49;;;;;;;5.90;4.20;;;;;;;21.42;42.62;95775.31;5030176;28;20028;-67
2022/12/04 03:06:15;;;;;;;5.85;3.72;;;;;;;21.40;42.73;95777.75;5011699;28;20437;-64
2022/12/04 03:08:45;;;;;;;4.60;4.05;;;;;;;19.67;42.59;95538.25;5046100;28;20049;-67
2022/12/04 03:11:11;;;;;;;4.85;3.80;;;;;;;21.22;42.64;95742.72;5025940;28;20317;-65
2022/12/04 03:13:48;;;;;;;5.22;4.05;;;;;;;21.39;42.57;95765.41;5039593;28;20729;-66
2022/12/04 03:16:26;;;;;;;4.85;3.83;;;;;;;21.05;42.53;95714.66;4989809;28;20033;-67
2022/12/04 03:18:57;;;;;;;5.30;4.10;;;;;;;21.40;42.18;95766.88;5008862;28;20036;-66
2022/12/04 03:21:26;;;;;;;4.70;3.75;;;;;;;21.38;42.61;95774.78;5016916;28;20030;-66
2022/12/04 03:23:58;;;;;;;5.63;4.20;;;;;;;21.31;42.84;95758.88;5012556;28;20033;-67
2022/12/04 03:26:30;;;;;;;4.85;3.72;;;;;;;21.37;42.72;95765.13;5027208;28;20044;-67
2022/12/04 03:29:17;;;;;;;4.68;3.72;;;;;;;21.35;42.62;95764.88;5009457;28;20063;-66
2022/12/04 03:31:56;;;;;;;5.10;4.03;;;;;;;21.36;42.68;95760.94;5033666;28;20037;-65
2022/12/04 03:34:29;;;;;;;5.30;4.38;;;;;;;21.37;42.28;95762.41;5009734;28;20037;-67
2022/12/04 03:36:56;;;;;;;4.40;3.63;;;;;;;21.23;42.75;95765.22;4994966;28;20404;-66
2022/12/04 03:39:27;;;;;;;5.20;3.90;;;;;;;21.29;42.65;95755.91;4993425;28;20103;-67
2022/12/04 03:42:20;;;;;;;5.10;3.90;;;;;;;21.36;42.46;95768.31;5046072;28;20061;-66
2022/12/04 03:45:19;;;;;;;5.20;3.83;;;;;;;21.28;42.58;95748.97;5042288;28;20041;-67
2022/12/04 03:47:55;;;;;;;4.50;3.70;;;;;;;21.33;42.75;95756.47;5018583;28;20056;-65
2022/12/04 03:50:37;;;;;;;4.70;3.72;;;;;;;21.31;42.61;95753.44;5021859;28;20044;-67
2022/12/04 03:53:17;;;;;;;5.25;3.83;;;;;;;21.14;42.72;95722.66;5018900;28;20084;-67
2022/12/04 03:55:50;;;;;;;5.38;4.05;;;;;;;21.22;42.79;95740.00;4992950;28;20036;-67
2022/12/04 03:58:19;;;;;;;4.60;3.53;;;;;;;21.11;42.60;95723.59;5010667;28;20036;-67
2022/12/04 04:00:44;;;;;;;4.47;3.55;;;;;;;21.27;42.78;95752.94;5006966;28;20053;-68
2022/12/04 04:03:34;;;;;;;4.35;3.40;;;;;;;21.31;42.52;95753.44;4990646;28;20041;-67
2022/12/04 04:06:10;;;;;;;4.57;3.70;;;;;;;21.26;42.57;95759.59;4993341;28;20597;-67
2022/12/04 04:08:37;;;;;;;4.68;3.80;;;;;;;21.31;42.57;95753.44;4985897;28;20030;-67
2022/12/04 04:11:12;;;;;;;4.38;3.70;;;;;;;21.12;42.61;95718.91;4993096;28;20034;-67
2022/12/04 04:24:55;;;;;;;4.80;4.00;;;;;;;20.24;42.41;95607.81;5011402;28;20036;-66
2022/12/04 04:27:21;;;;;;;5.05;3.72;;;;;;;21.24;42.60;95764.75;4991770;28;20026;-66
2022/12/04 04:29:46;;;;;;;5.03;3.83;;;;;;;19.46;42.51;95501.53;5045410;28;20103;-67
2022/12/04 04:32:32;;;;;;;4.80;3.60;;;;;;;21.27;42.69;95768.47;5042345;28;20045;-68
2022/12/04 04:35:18;;;;;;;4.60;3.50;;;;;;;20.46;43.07;95646.78;5039560;28;20098;-67
2022/12/04 04:38:11;;;;;;;5.38;3.70;;;;;;;21.26;42.59;95773.16;5032542;28;20041;-66
2022/12/04 04:40:58;;;;;;;3.88;3.25;;;;;;;21.25;42.74;95760.78;5047226;28;20186;-66
2022/12/04 04:43:34;;;;;;;4.22;3.53;;;;;;;21.24;42.91;95762.03;5036018;28;20033;-66
2022/12/04 04:46:05;;;;;;;5.05;3.90;;;;;;;21.14;42.99;95752.53;5015327;28;20103;-68
2022/12/04 04:48:30;;;;;;;;;;;;;;;21.28;42.46;95770.69;5027680;28;20044;-67
2022/12/04 04:50:57;;;;;;;5.95;3.78;;;;;;;21.28;42.50;95762.56;5031668;28;19971;-66
2022/12/04 04:53:27;;;;;;;4.20;3.72;;;;;;;20.97;42.49;95729.88;5030774;28;20045;-67
2022/12/04 04:55:52;;;;;;;4.38;3.45;;;;;;;20.23;42.20;95609.75;5021526;28;20042;-66
2022/12/04 04:58:19;;;;;;;4.65;3.67;;;;;;;21.01;42.78;95730.38;4994367;28;20037;-66
2022/12/04 05:01:00;;;;;;;4.88;3.72;;;;;;;21.19;42.56;95764.69;4994190;28;20395;-67
2022/12/04 05:03:26;;;;;;;4.30;3.20;;;;;;;20.23;42.52;95623.31;5025885;28;20029;-66
2022/12/04 05:05:51;;;;;;;4.55;3.47;;;;;;;20.96;42.94;95744.66;5044769;28;20040;-66
2022/12/04 05:08:17;;;;;;;4.32;3.63;;;;;;;21.20;42.73;95780.50;5018146;28;20517;-66
2022/12/04 05:10:42;;;;;;;4.30;3.47;;;;;;;21.11;42.58;95755.47;5007016;28;20434;-67
2022/12/04 05:13:09;;;;;;;4.50;3.63;;;;;;;20.99;42.53;95738.28;5017333;28;20044;-65
2022/12/04 05:15:35;;;;;;;4.80;3.38;;;;;;;21.20;42.58;95783.22;4997476;28;20477;-65
2022/12/04 05:18:00;;;;;;;4.10;3.65;;;;;;;21.20;42.61;95796.78;5029738;28;20044;-67
2022/12/04 05:20:25;;;;;;;4.40;3.25;;;;;;;21.19;42.76;95795.28;5048227;28;20041;-66
2022/12/04 05:22:51;;;;;;;3.63;3.10;;;;;;;20.30;42.52;95657.41;5041198;28;20151;-63
2022/12/04 05:25:16;;;;;;;4.38;3.72;;;;;;;21.17;42.71;95797.75;5040983;28;20048;-66
2022/12/04 05:27:42;;;;;;;4.95;3.47;;;;;;;18.82;42.82;95447.88;5044926;28;20127;-66
2022/12/04 05:30:09;;;;;;;4.95;3.53;;;;;;;21.15;42.67;95788.56;5027698;28;20033;-67
2022/12/04 05:32:34;;;;;;;4.50;3.25;;;;;;;19.99;42.46;95609.19;5013053;28;20037;-67
2022/12/04 05:35:00;;;;;;;4.38;3.40;;;;;;;21.18;42.74;95793.81;5028376;28;20049;-66
2022/12/04 05:37:25;;;;;;;4.57;3.47;;;;;;;21.16;42.60;95790.06;5043134;28;20033;-67
2022/12/04 05:39:51;;;;;;;4.07;3.40;;;;;;;19.73;42.47;95585.13;5047818;28;20099;-68
2022/12/04 05:42:16;;;;;;;4.32;3.17;;;;;;;20.97;42.73;95800.47;5029780;28;20048;-67
2022/12/04 05:44:42;;;;;;;4.55;3.15;;;;;;;21.17;42.77;95808.59;5047562;28;20033;-66
2022/12/04 05:47:07;;;;;;;5.00;3.58;;;;;;;21.13;42.69;95801.88;4992939;28;20146;-66
2022/12/04 05:49:33;;;;;;;4.50;3.40;;;;;;;20.96;42.54;95770.34;5024940;28;20037;-65
2022/12/04 05:51:59;;;;;;;4.40;3.40;;;;;;;21.16;42.60;95811.81;5048616;28;20025;-67
2022/12/04 05:54:24;;;;;;;3.90;3.28;;;;;;;21.14;42.62;95815.00;5031047;28;20033;-68
2022/12/04 05:56:50;;;;;;;4.22;3.05;;;;;;;20.07;42.39;95669.94;5048381;28;20037;-68
2022/12/04 05:59:16;;;;;;;4.38;3.40;;;;;;;21.15;42.59;95813.00;5030471;28;20481;-67
2022/12/04 06:01:41;;;;;;;4.13;3.42;;;;;;;21.15;42.73;95816.50;5047819;28;20512;-67
2022/12/04 06:04:07;;;;;;;3.65;3.15;;;;;;;21.04;42.58;95794.59;5043415;28;20116;-67
2022/12/04 06:06:32;;;;;;;4.43;3.35;;;;;;;21.15;42.69;95813.78;5048476;28;20127;-64
2022/12/04 06:08:58;;;;;;;4.97;3.95;;;;;;;21.14;42.77;95806.84;5044866;28;20124;-67
2022/12/04 06:11:25;;;;;;;4.63;3.28;;;;;;;21.16;42.61;95807.09;5045933;28;20056;-68
2022/12/04 06:13:51;;;;;;;4.30;3.10;;;;;;;20.10;42.54;95658.16;5009335;28;20045;-66
2022/12/04 06:16:20;;;;;;;3.60;2.95;;;;;;;21.15;42.65;95816.50;5046571;28;20039;-65
2022/12/04 06:18:53;;;;;;;3.42;2.83;;;;;;;20.93;42.52;95785.59;5045595;28;20032;-67
2022/12/04 06:21:19;;;;;;;4.20;3.38;;;;;;;21.16;42.68;95828.09;5008917;28;20103;-68
2022/12/04 06:23:45;;;;;;;3.78;3.20;;;;;;;21.28;42.37;95819.59;5017983;28;20136;-68
2022/12/04 06:26:10;;;;;;;4.00;3.05;;;;;;;21.06;42.38;95780.56;5047767;28;20028;-68
2022/12/04 06:28:36;;;;;;;4.30;3.17;;;;;;;21.37;42.48;95827.63;5042769;28;20041;-65
2022/12/04 06:31:05;;;;;;;4.43;3.45;;;;;;;21.44;42.53;95805.47;5043259;28;20049;-67
2022/12/04 06:33:31;;;;;;;4.30;3.38;;;;;;;21.49;42.20;95791.22;5013289;28;20654;-67
2022/12/04 06:36:00;;;;;;;4.13;3.05;;;;;;;20.51;42.10;95638.00;5011200;28;20072;-68
2022/12/04 06:38:26;;;;;;;5.75;3.15;;;;;;;21.63;42.22;95812.16;5025700;28;20045;-67
2022/12/04 06:40:51;;;;;;;4.40;3.08;;;;;;;21.75;41.96;95821.88;5021525;28;20049;-68
2022/12/04 06:43:17;;;;;;;3.60;3.00;;;;;;;21.88;41.94;95833.16;5038671;28;20041;-66
2022/12/04 06:45:42;;;;;;;4.70;3.15;;;;;;;21.90;42.34;95830.69;5043222;28;20025;-66
2022/12/04 06:48:07;;;;;;;6.15;4.03;;;;;;;21.47;41.80;95831.72;5026577;28;20040;-62
2022/12/04 06:50:33;;;;;;;5.45;3.58;;;;;;;21.70;42.81;95828.78;5008434;28;20524;-67
2022/12/04 06:52:58;;;;;;;4.30;3.08;;;;;;;21.82;42.93;95821.47;5040705;28;20045;-67
2022/12/04 06:55:24;;;;;;;4.07;2.80;;;;;;;21.90;43.26;95825.25;5044655;28;20037;-62
2022/12/04 06:57:49;;;;;;;3.70;2.80;;;;;;;21.74;42.92;95776.91;5044851;28;21506;-66
2022/12/04 07:00:15;;;;;;;4.38;3.13;;;;;;;21.97;42.84;95823.63;5039370;28;20060;-65
2022/12/04 07:02:40;;;;;;;4.95;3.00;;;;;;;22.02;42.86;95812.03;5034557;28;20048;-65
2022/12/04 07:05:06;;;;;;;3.67;2.85;;;;;;;21.83;43.22;95782.19;5038732;28;20049;-65
2022/12/04 07:07:31;;;;;;;5.35;3.10;;;;;;;22.10;42.92;95818.53;5026825;28;20052;-66
2022/12/04 07:09:57;;;;;;;4.25;2.97;;;;;;;22.20;42.61;95821.84;5039731;28;20030;-66
2022/12/04 07:12:22;;;;;;;5.03;3.17;;;;;;;22.29;42.51;95819.00;5025532;28;20498;-65
2022/12/04 07:14:48;;;;;;;4.03;2.67;;;;;;;22.29;42.69;95811.56;5041918;28;20517;-64
2022/12/04 07:17:13;;;;;;;4.05;3.10;;;;;;;21.60;42.01;95716.00;5023806;28;20657;-64
2022/12/04 07:19:39;;;;;;;3.85;2.90;;;;;;;22.33;42.16;95797.72;5034532;28;20675;-66
2022/12/04 07:22:05;;;;;;;4.70;2.85;;;;;;;22.30;42.22;95794.03;5025544;28;20047;-66
2022/12/04 07:24:30;;;;;;;4.15;2.80;;;;;;;22.41;41.94;95785.94;5024994;28;20040;-65
2022/12/04 07:26:55;;;;;;;4.45;2.92;;;;;;;22.77;41.58;95842.38;5026214;28;20095;-64
2022/12/04 07:29:21;;;;;;;3.67;2.55;;;;;;;22.92;41.44;95832.81;5007902;28;20045;-63
2022/12/04 07:31:46;;;;;;;3.33;2.60;;;;;;;22.85;41.31;95832.50;5025994;28;20233;-64
2022/12/04 07:34:12;;;;;;;3.42;2.70;;;;;;;22.77;41.03;95831.47;5042421;28;20048;-65
2022/12/04 07:36:38;;;;;;;4.63;2.95;;;;;;;22.96;41.28;95828.66;5025880;28;20032;-64
2022/12/04 07:39:04;;;;;;;4.40;2.72;;;;;;;23.15;41.17;95831.72;5039675;28;20060;-66
2022/12/04 07:41:29;;;;;;;4.53;3.20;;;;;;;23.24;40.97;95831.50;5024599;28;20097;-65
2022/12/04 07:43:54;;;;;;;3.65;2.80;;;;;;;23.15;41.03;95807.97;5025311;28;20056;-66
2022/12/04 07:46:22;;;;;;;4.70;2.88;;;;;;;23.28;40.96;95827.31;5000482;28;20030;-66
2022/12/04 07:48:47;;;;;;;4.05;2.97;;;;;;;22.86;40.68;95755.03;5043240;28;20513;-65
2022/12/04 07:51:17;;;;;;;3.80;2.95;;;;;;;23.41;40.52;95831.09;5043745;28;20036;-66
2022/12/04 07:53:43;;;;;;;;;;;;;;;23.49;40.29;95825.94;5011933;28;20033;-67
2022/12/04 07:56:08;;;;;;;3.90;2.72;;;;;;;23.36;40.59;95806.53;5048626;28;19920;-66
2022/12/04 07:58:34;;;;;;;3.80;2.60;;;;;;;23.53;40.06;95821.72;5014268;28;20067;-65
2022/12/04 08:01:06;;;;;;;3.40;2.80;;;;;;;23.60;39.92;95825.97;5044369;28;20118;-67
2022/12/04 08:03:31;;;;;;;3.85;2.67;;;;;;;23.70;40.39;95827.28;5053354;28;20082;-67
2022/12/04 08:06:01;;;;;;;3.72;2.28;;;;;;;23.74;40.18;95825.06;5029529;28;20530;-65
2022/12/04 08:08:26;;;;;;;3.60;2.67;;;;;;;23.08;39.98;95748.47;5019056;28;20781;-66
2022/12/04 08:10:51;;;;;;;3.33;2.83;;;;;;;23.93;40.04;95838.50;5039073;28;20292;-66
2022/12/04 08:13:17;;;;;;;4.03;2.50;;;;;;;23.73;39.91;95823.56;5027522;28;20038;-66
2022/12/04 08:15:42;;;;;;;3.95;2.72;;;;;;;23.73;39.88;95839.91;5029350;28;20034;-66
2022/12/04 08:18:08;;;;;;;3.95;2.47;;;;;;;23.85;39.83;95825.06;4993276;28;20481;-64
2022/12/04 08:20:33;;;;;;;4.32;2.92;;;;;;;22.93;39.47;95682.53;5026929;28;20033;-66
2022/12/04 08:22:59;;;;;;;3.58;2.55;;;;;;;23.96;39.95;95815.69;5023124;28;20033;-65
2022/12/04 08:25:24;;;;;;;3.50;2.30;;;;;;;23.63;39.65;95754.84;5025176;28;20119;-63
2022/12/04 08:27:49;;;;;;;4.72;2.65;;;;;;;23.37;39.42;95726.28;5009781;28;20022;-66
2022/12/04 08:30:15;;;;;;;4.22;2.30;;;;;;;24.12;39.47;95830.56;5046444;28;20122;-65
2022/12/04 08:32:41;;;;;;;3.22;2.63;;;;;;;24.11;39.37;95838.03;5017797;28;20096;-66
2022/12/04 08:35:06;;;;;;;3.63;2.60;;;;;;;24.19;39.18;95836.28;5020699;28;20049;-64
2022/12/04 08:37:32;;;;;;;3.97;2.80;;;;;;;24.27;38.88;95828.38;5021625;28;20049;-67
2022/12/04 08:39:57;;;;;;;4.45;2.55;;;;;;;24.25;39.38;95826.13;5007677;28;20462;-67
2022/12/04 08:42:23;;;;;;;3.75;2.50;;;;;;;24.19;39.02;95822.66;5006017;28;20422;-66
2022/12/04 08:44:48;;;;;;;3.70;2.55;;;;;;;23.51;39.33;95738.94;5023360;28;20044;-67
2022/12/04 08:47:14;;;;;;;3.78;2.78;;;;;;;24.26;39.43;95822.16;5018221;28;20029;-67
2022/12/04 08:49:39;;;;;;;3.92;2.60;;;;;;;24.32;39.05;95820.19;5041850;28;20044;-67
2022/12/04 08:52:04;;;;;;;3.47;2.45;;;;;;;24.22;39.58;95816.19;5043818;28;20040;-66
2022/12/04 08:54:30;;;;;;;3.28;2.28;;;;;;;24.29;39.03;95810.25;5043431;28;20044;-68
2022/12/04 08:56:55;;;;;;;3.95;2.72;;;;;;;23.83;39.11;95732.09;5042894;28;20063;-67
2022/12/04 08:59:21;;;;;;;2.78;2.25;;;;;;;24.38;39.49;95788.19;5028378;28;20045;-65
2022/12/04 09:01:49;;;;;;;4.05;2.72;;;;;;;24.48;39.51;95814.00;5029995;28;20055;-66
2022/12/04 09:04:15;;;;;;;3.60;2.17;;;;;;;23.96;39.95;95712.00;5014353;28;20421;-66
2022/12/04 09:06:40;;;;;;;3.92;2.75;;;;;;;24.66;39.98;95805.28;5046153;28;20032;-65
2022/12/04 09:09:06;;;;;;;3.75;2.38;;;;;;;23.96;39.73;95711.25;5046834;28;20037;-64
2022/12/04 09:11:31;;;;;;;3.45;2.38;;;;;;;24.67;39.72;95801.34;5009713;28;20128;-65
2022/12/04 09:13:57;;;;;;;3.38;2.60;;;;;;;23.87;39.69;95671.34;5047206;28;20044;-64
2022/12/04 09:16:23;;;;;;;2.90;2.20;;;;;;;24.84;39.32;95805.50;5015320;28;20073;-64
2022/12/04 09:18:48;;;;;;;3.33;2.38;;;;;;;24.85;39.17;95802.28;5029491;28;20058;-66
2022/12/04 09:21:15;;;;;;;3.17;2.53;;;;;;;24.91;39.48;95800.28;5016866;28;20548;-65
2022/12/04 09:23:40;;;;;;;3.88;2.50;;;;;;;24.87;40.08;95788.88;5042438;28;20064;-66
2022/12/04 09:26:20;;;;;;;3.97;2.40;;;;;;;24.85;39.33;95785.16;5012076;28;20057;-66
2022/12/04 09:28:46;;;;;;;4.97;2.38;;;;;;;24.13;39.42;95666.34;5028822;28;20029;-65
2022/12/04 09:31:12;;;;;;;3.00;2.28;;;;;;;24.81;39.18;95778.44;5028246;28;20056;-65
2022/12/04 09:33:37;;;;;;;4.90;2.72;;;;;;;24.95;39.48;95784.38;5043937;28;20032;-67
2022/12/04 09:36:03;;;;;;;3.00;2.40;;;;;;;24.83;39.54;95761.06;5045627;28;20040;-63
2022/12/04 09:38:28;;;;;;;3.40;2.42;;;;;;;23.94;38.86;95632.63;5044013;28;20774;-67
2022/12/04 09:41:01;;;;;;;3.13;2.35;;;;;;;24.98;39.20;95760.78;5026985;28;20048;-67
2022/12/04 09:43:30;;;;;;;5.15;2.30;;;;;;;24.99;39.15;95773.97;5010902;28;20182;-67
2022/12/04 09:45:59;;;;;;;3.50;2.27;;;;;;;25.04;39.21;95754.06;5029710;28;20029;-68
2022/12/04 09:48:31;;;;;;;3.38;2.22;;;;;;;25.10;38.83;95760.25;5026310;28;20052;-67
2022/12/04 09:50:56;;;;;;;2.97;2.22;;;;;;;24.95;38.69;95740.66;5005616;28;20045;-66
2022/12/04 09:53:25;;;;;;;3.33;2.20;;;;;;;25.23;38.58;95744.06;5007630;28;20040;-67
2022/12/04 09:55:56;;;;;;;3.20;2.15;;;;;;;25.11;38.85;95748.09;5017443;28;20186;-66
2022/12/04 09:58:31;;;;;;;3.67;2.40;;;;;;;24.24;38.26;95611.72;5038555;28;20049;-66
2022/12/04 10:00:56;;;;;;;4.00;2.10;;;;;;;25.12;38.46;95738.63;5008236;28;20564;-67
2022/12/04 10:03:24;;;;;;;2.47;1.95;;;;;;;25.12;38.46;95721.50;5005385;28;20071;-68
2022/12/04 10:06:02;;;;;;;2.65;2.08;;;;;;;25.24;38.28;95723.66;5010478;28;20052;-65
2022/12/04 10:08:33;;;;;;;2.90;1.92;;;;;;;25.20;37.97;95722.44;5043503;28;20045;-68
2022/12/04 10:11:04;;;;;;;3.17;2.35;;;;;;;25.29;38.03;95720.19;5009630;28;20052;-65
2022/12/04 10:13:51;;;;;;;3.83;2.45;;;;;;;25.12;38.17;95705.84;5044681;28;20525;-66
2022/12/04 10:16:22;;;;;;;3.05;2.17;;;;;;;25.08;38.54;95708.09;5045379;28;20127;-68
2022/12/04 10:19:23;;;;;;;3.10;2.20;;;;;;;25.20;38.14;95701.34;5037192;28;20055;-67
2022/12/04 10:21:58;;;;;;;4.70;2.47;;;;;;;25.00;38.09;95690.72;5020652;28;20138;-67
2022/12/04 10:24:32;;;;;;;3.47;2.30;;;;;;;25.21;38.13;95713.00;5017404;28;20102;-67
2022/12/04 10:26:59;;;;;;;2.58;1.80;;;;;;;25.19;38.32;95697.09;5039674;28;20048;-68
2022/12/04 10:29:32;;;;;;;3.35;2.30;;;;;;;25.19;38.06;95710.78;5009601;28;20033;-66
2022/12/04 10:32:04;;;;;;;4.15;2.13;;;;;;;25.01;38.39;95672.34;4994210;28;20052;-65
2022/12/04 10:34:29;;;;;;;2.88;1.92;;;;;;;24.88;37.64;95615.47;5022213;28;20036;-65
2022/12/04 10:37:07;;;;;;;3.47;1.98;;;;;;;25.67;37.25;95686.41;5013314;28;20029;-68
2022/12/04 10:39:40;;;;;;;3.95;2.15;;;;;;;25.80;37.08;95693.53;5007377;28;20021;-65
2022/12/04 10:42:26;;;;;;;3.33;2.42;;;;;;;24.76;37.55;95568.88;5028046;28;20160;-67
2022/12/04 10:44:52;;;;;;;4.13;2.35;;;;;;;25.61;37.40;95688.41;5028320;28;20037;-68
2022/12/04 10:47:17;;;;;;;3.58;2.40;;;;;;;25.54;37.84;95683.47;5028961;28;20095;-67
2022/12/04 10:49:43;;;;;;;4.00;2.22;;;;;;;25.60;37.55;95667.78;5021624;28;20079;-68
2022/12/04 10:52:10;;;;;;;3.33;2.25;;;;;;;25.75;37.13;95679.13;5048916;28;20048;-67
2022/12/04 10:54:57;;;;;;;4.38;2.33;;;;;;;25.51;37.25;95665.34;5033233;28;20025;-68
2022/12/04 10:57:36;;;;;;;4.93;2.60;;;;;;;25.57;37.84;95687.94;5028679;28;20033;-64
2022/12/04 11:00:03;;;;;;;3.35;2.08;;;;;;;25.23;37.69;95700.34;5030791;28;20041;-65
2022/12/04 11:02:30;;;;;;;3.40;2.20;;;;;;;24.67;37.72;95544.59;5007753;28;20029;-64
2022/12/04 11:04:56;;;;;;;3.95;2.10;;;;;;;25.54;37.86;95686.22;5014235;28;20033;-66
2022/12/04 11:07:24;;;;;;;5.28;2.15;;;;;;;25.44;38.10;95682.28;5047443;28;20045;-66
2022/12/04 11:10:16;;;;;;;3.33;2.10;;;;;;;25.40;37.66;95659.97;5018082;28;20146;-65
2022/12/04 11:12:58;;;;;;;4.70;2.60;;;;;;;25.44;37.76;95694.00;5023718;28;20032;-67
2022/12/04 11:15:24;;;;;;;3.90;2.35;;;;;;;25.32;38.09;95680.91;5029184;28;20108;-67
2022/12/04 11:17:51;;;;;;;4.65;2.33;;;;;;;25.32;38.13;95669.97;5010688;28;20049;-66
2022/12/04 11:20:24;;;;;;;3.58;2.00;;;;;;;24.57;38.03;95551.59;5011812;28;20113;-67
2022/12/04 11:22:55;;;;;;;3.00;2.10;;;;;;;25.24;37.98;95663.53;5016364;28;20048;-66
2022/12/04 11:25:21;;;;;;;3.08;1.77;;;;;;;25.32;38.43;95680.91;5014386;28;20155;-64
2022/12/04 11:27:49;;;;;;;3.63;2.38;;;;;;;25.45;37.57;95657.16;5028945;28;20131;-65
2022/12/04 11:30:18;;;;;;;3.42;2.28;;;;;;;25.40;37.62;95649.03;5013180;28;20029;-64
2022/12/04 11:32:44;;;;;;;4.35;2.50;;;;;;;25.53;37.42;95657.38;5009921;28;20045;-63
2022/12/04 11:35:23;;;;;;;4.75;2.30;;;;;;;25.33;37.78;95649.56;5009700;28;20048;-63
2022/12/04 11:38:11;;;;;;;2.47;1.90;;;;;;;25.46;37.40;95647.00;5018366;28;20165;-62
2022/12/04 11:40:37;;;;;;;3.55;2.10;;;;;;;25.61;37.43;95669.25;5006335;28;20049;-62
2022/12/04 11:43:13;;;;;;;3.78;1.90;;;;;;;25.72;37.27;95669.94;4988577;28;20052;-62
2022/12/04 11:45:39;;;;;;;4.25;2.13;;;;;;;25.36;37.41;95621.94;5006057;28;20033;-62
2022/12/04 11:48:15;;;;;;;3.80;2.40;;;;;;;25.69;37.27;95675.69;5016354;28;20049;-62
2022/12/04 11:50:59;;;;;;;3.35;2.30;;;;;;;25.73;37.65;95676.19;5003198;28;20041;-64
2022/12/04 11:53:40;;;;;;;3.53;2.30;;;;;;;25.72;37.67;95680.16;5032256;28;20049;-61
2022/12/04 11:56:22;;;;;;;3.50;2.10;;;;;;;25.83;37.69;95673.34;5035241;28;20079;-66